Time;durP1;ratioP1;P1;durP2;ratioP2;P2;SDS_P1;SDS_P2;PMS_P1;PMS_P2;Temp;Humidity;BMP_temperature;BMP_pressure;BME280_temperature;BME280_humidity;BME280_pressure;Samples;Min_cycle;Max_cycle;Signal;HPM_P1;HPM_P2
2021/04/28 00:00:16;;;;;;;4.63;3.60;;;14.90;96.70;;;;;;4966986;28;20073;-76
2021/04/28 00:02:43;;;;;;;4.35;3.67;;;14.90;96.70;;;;;;4980086;28;20064;-77
2021/04/28 00:05:13;;;;;;;3.80;3.00;;;15.00;96.70;;;;;;4968239;28;20614;-77
2021/04/28 00:07:41;;;;;;;5.05;3.28;;;15.00;96.70;;;;;;4987526;28;20046;-77
2021/04/28 00:10:11;;;;;;;5.32;3.70;;;15.00;96.70;;;;;;4965903;28;20411;-76
2021/04/28 00:12:39;;;;;;;5.22;2.97;;;15.10;96.70;;;;;;4989375;28;20663;-78
2021/04/28 00:15:12;;;;;;;4.32;2.85;;;15.20;96.70;;;;;;4954061;28;20101;-78
2021/04/28 00:17:40;;;;;;;3.03;2.63;;;15.20;96.70;;;;;;4964903;28;20137;-77
2021/04/28 00:20:10;;;;;;;3.10;2.50;;;15.20;96.70;;;;;;4962314;28;20042;-78
2021/04/28 00:22:40;;;;;;;3.22;2.92;;;15.10;96.70;;;;;;4967453;28;20043;-78
2021/04/28 00:25:09;;;;;;;3.00;2.70;;;15.10;96.70;;;;;;4961587;28;20424;-78
2021/04/28 00:27:38;;;;;;;3.00;2.63;;;15.10;96.70;;;;;;4963893;28;20464;-77
2021/04/28 00:30:08;;;;;;;3.85;2.95;;;15.10;96.70;;;;;;4964506;28;20605;-77
2021/04/28 00:32:36;;;;;;;4.13;2.55;;;15.10;96.70;;;;;;4962711;28;20050;-77
2021/04/28 00:35:06;;;;;;;2.40;2.20;;;15.00;96.70;;;;;;4964436;28;20043;-77
2021/04/28 00:37:34;;;;;;;3.50;2.40;;;15.00;96.70;;;;;;4963317;28;20049;-78
2021/04/28 00:40:05;;;;;;;3.05;2.50;;;15.00;96.70;;;;;;4964778;28;20501;-78
2021/04/28 00:42:34;;;;;;;2.90;2.38;;;15.00;96.70;;;;;;4965585;28;20043;-77
2021/04/28 00:45:03;;;;;;;2.45;2.22;;;15.00;96.70;;;;;;4965289;28;20125;-77
2021/04/28 00:47:31;;;;;;;2.90;2.15;;;15.10;96.70;;;;;;4959478;28;20260;-77
2021/04/28 00:49:58;;;;;;;3.40;2.38;;;15.10;96.70;;;;;;4961137;28;20397;-78
2021/04/28 00:52:27;;;;;;;3.90;2.38;;;15.00;96.70;;;;;;4962832;28;20069;-78
2021/04/28 00:54:54;;;;;;;4.07;2.42;;;15.00;96.70;;;;;;4969175;28;20035;-78
2021/04/28 00:57:23;;;;;;;3.38;2.60;;;14.80;96.70;;;;;;4965980;28;20106;-77
2021/04/28 00:59:52;;;;;;;3.67;2.40;;;14.80;96.70;;;;;;4967322;28;20078;-78
2021/04/28 01:02:20;;;;;;;3.35;2.22;;;15.00;96.70;;;;;;4949074;28;20149;-77
2021/04/28 01:04:49;;;;;;;2.78;2.30;;;15.00;96.70;;;;;;4962528;28;20047;-78
2021/04/28 01:07:20;;;;;;;3.63;2.00;;;15.10;96.70;;;;;;4946744;28;20042;-77
2021/04/28 01:09:49;;;;;;;2.65;2.20;;;15.10;96.70;;;;;;4959705;28;20043;-78
2021/04/28 01:12:17;;;;;;;2.10;1.90;;;15.10;96.70;;;;;;4962049;28;20404;-78
2021/04/28 01:14:47;;;;;;;3.45;2.25;;;15.10;96.70;;;;;;4947668;28;20873;-78
2021/04/28 01:17:17;;;;;;;2.53;2.22;;;15.20;96.70;;;;;;4979034;28;20052;-77
2021/04/28 01:19:46;;;;;;;2.22;2.03;;;15.10;96.70;;;;;;4961136;28;20583;-77
2021/04/28 01:22:14;;;;;;;2.38;1.60;;;15.20;96.70;;;;;;4963521;28;20393;-77
2021/04/28 01:24:43;;;;;;;3.67;2.17;;;15.10;96.70;;;;;;4962634;28;20473;-77
2021/04/28 01:27:15;;;;;;;3.20;2.08;;;15.10;96.70;;;;;;4964361;28;20120;-77
2021/04/28 01:29:46;;;;;;;2.28;2.05;;;15.00;96.70;;;;;;4964071;28;20943;-78
2021/04/28 01:32:17;;;;;;;2.10;1.75;;;15.00;96.70;;;;;;4964507;28;20540;-77
2021/04/28 01:34:47;;;;;;;2.22;1.60;;;14.90;96.70;;;;;;4960789;28;20157;-78
2021/04/28 01:37:15;;;;;;;2.35;1.75;;;15.00;96.70;;;;;;4962736;28;20030;-78
2021/04/28 01:39:50;;;;;;;1.55;1.42;;;15.00;96.70;;;;;;4965102;28;20086;-78
2021/04/28 01:42:19;;;;;;;1.92;1.60;;;15.00;96.70;;;;;;4963241;28;20046;-76
2021/04/28 01:44:50;;;;;;;2.75;2.05;;;15.10;96.70;;;;;;4965049;28;20039;-77
2021/04/28 01:47:19;;;;;;;2.75;2.38;;;15.10;96.70;;;;;;4959053;28;20038;-76
2021/04/28 01:49:52;;;;;;;1.90;1.55;;;15.00;96.70;;;;;;4945667;28;20149;-76
2021/04/28 01:52:20;;;;;;;2.58;2.05;;;15.10;96.70;;;;;;4965198;28;20133;-77
2021/04/28 01:54:50;;;;;;;2.72;2.15;;;15.10;96.70;;;;;;4960542;28;20054;-76
2021/04/28 01:57:18;;;;;;;2.75;2.10;;;15.10;96.70;;;;;;4959353;28;20047;-77
2021/04/28 02:00:06;;;;;;;3.92;1.83;;;15.10;96.70;;;;;;4959823;28;20050;-76
2021/04/28 02:02:51;;;;;;;2.33;1.95;;;15.00;96.70;;;;;;4974213;28;20094;-76
2021/04/28 02:05:24;;;;;;;2.08;1.65;;;15.00;96.70;;;;;;4979870;28;20141;-76
2021/04/28 02:07:52;;;;;;;2.55;1.70;;;15.00;96.70;;;;;;4963029;28;20508;-77
2021/04/28 02:10:21;;;;;;;3.08;1.88;;;15.00;96.70;;;;;;4965083;28;20121;-76
2021/04/28 02:12:51;;;;;;;1.70;1.52;;;15.00;96.70;;;;;;4959797;28;20406;-76
2021/04/28 02:15:29;;;;;;;1.70;1.52;;;15.00;96.70;;;;;;4959846;28;20050;-76
2021/04/28 02:18:05;;;;;;;1.80;1.50;;;14.90;96.70;;;;;;4962730;28;20523;-75
2021/04/28 02:20:38;;;;;;;1.85;1.38;;;14.90;96.70;;;;;;4960117;28;20053;-76
2021/04/28 02:23:30;;;;;;;1.92;1.65;;;14.70;96.70;;;;;;4962957;28;20448;-76
2021/04/28 02:26:00;;;;;;;1.75;1.52;;;14.60;96.70;;;;;;4962731;28;20050;-76
2021/04/28 02:28:33;;;;;;;1.63;1.52;;;14.50;96.70;;;;;;4960322;28;20106;-76
2021/04/28 02:31:04;;;;;;;1.48;1.23;;;14.40;96.70;;;;;;4962458;28;20116;-76
2021/04/28 02:33:37;;;;;;;1.30;1.20;;;14.40;96.70;;;;;;4943895;28;20122;-76
2021/04/28 02:36:33;;;;;;;2.67;1.38;;;14.50;96.70;;;;;;4903743;29;20064;-76
2021/04/28 02:39:26;;;;;;;1.50;1.23;;;14.40;96.70;;;;;;4892533;29;20059;-76
2021/04/28 02:41:56;;;;;;;1.65;1.33;;;14.30;96.70;;;;;;4888734;29;20611;-76
2021/04/28 02:44:26;;;;;;;1.50;1.20;;;14.30;96.70;;;;;;4886611;29;20048;-76
2021/04/28 02:46:57;;;;;;;1.58;1.15;;;14.30;96.70;;;;;;4885441;29;20052;-76
2021/04/28 02:49:28;;;;;;;1.77;1.40;;;14.30;96.70;;;;;;4887436;29;20670;-76
2021/04/28 02:52:21;;;;;;;1.85;1.15;;;14.30;96.70;;;;;;4885205;29;20059;-76
2021/04/28 02:54:50;;;;;;;1.58;1.13;;;14.50;96.70;;;;;;4903854;29;20044;-76
2021/04/28 02:57:23;;;;;;;2.13;1.63;;;14.50;96.70;;;;;;4901345;29;20886;-76
2021/04/28 02:59:53;;;;;;;1.50;1.20;;;14.60;96.70;;;;;;4887872;29;20088;-76
2021/04/28 03:02:27;;;;;;;2.17;1.52;;;14.60;96.70;;;;;;4886476;29;20135;-76
2021/04/28 03:04:55;;;;;;;1.88;1.30;;;14.60;96.70;;;;;;4883761;29;20104;-77
2021/04/28 03:07:39;;;;;;;1.95;1.38;;;14.70;96.70;;;;;;4872876;29;20048;-76
2021/04/28 03:10:09;;;;;;;2.15;1.50;;;14.60;96.70;;;;;;4887108;29;20044;-76
2021/04/28 03:12:40;;;;;;;1.85;1.42;;;14.60;96.70;;;;;;4912959;28;20046;-76
2021/04/28 03:15:10;;;;;;;1.50;1.20;;;14.70;96.70;;;;;;4973560;28;20055;-76
2021/04/28 03:17:39;;;;;;;1.42;1.30;;;14.70;96.70;;;;;;4955533;28;20057;-76
2021/04/28 03:20:13;;;;;;;1.95;1.33;;;14.80;96.70;;;;;;4959329;28;20042;-76
2021/04/28 03:22:47;;;;;;;1.73;1.30;;;14.70;96.70;;;;;;4961230;28;20275;-76
2021/04/28 03:25:16;;;;;;;2.30;1.63;;;14.60;96.70;;;;;;4962560;28;20043;-76
2021/04/28 03:27:49;;;;;;;1.45;1.20;;;14.50;96.70;;;;;;4944395;28;20058;-76
2021/04/28 03:30:18;;;;;;;1.77;1.10;;;14.40;96.70;;;;;;4962609;28;20129;-76
2021/04/28 03:32:47;;;;;;;1.63;1.52;;;14.50;96.70;;;;;;4957328;28;20462;-76
2021/04/28 03:35:38;;;;;;;1.83;1.30;;;14.40;96.70;;;;;;4954012;28;20149;-76
2021/04/28 03:38:24;;;;;;;1.65;1.50;;;14.50;96.70;;;;;;4959296;28;20579;-76
2021/04/28 03:40:52;;;;;;;1.20;1.10;;;14.50;96.70;;;;;;4961680;28;20141;-76
2021/04/28 03:43:21;;;;;;;1.30;1.17;;;14.50;96.70;;;;;;4962063;28;20038;-76
2021/04/28 03:45:51;;;;;;;2.00;1.45;;;14.40;96.70;;;;;;4961072;28;20046;-76
2021/04/28 03:48:28;;;;;;;5.85;1.63;;;14.40;96.70;;;;;;4945288;28;20039;-76
2021/04/28 03:50:55;;;;;;;2.28;1.15;;;14.40;96.70;;;;;;4957959;28;20564;-76
2021/04/28 03:53:24;;;;;;;1.92;1.23;;;14.30;96.70;;;;;;4944024;28;20412;-76
2021/04/28 03:56:23;;;;;;;1.70;1.10;;;14.40;96.70;;;;;;4959899;28;20043;-76
2021/04/28 03:58:52;;;;;;;1.52;1.40;;;14.40;96.70;;;;;;4958706;28;20066;-76
2021/04/28 04:01:20;;;;;;;2.63;1.30;;;14.50;96.70;;;;;;4956574;28;20039;-76
2021/04/28 04:03:49;;;;;;;1.80;1.30;;;14.60;96.70;;;;;;4945031;28;20624;-76
2021/04/28 04:06:35;;;;;;;1.77;1.60;;;14.70;96.70;;;;;;4959652;28;20042;-77
2021/04/28 04:09:18;;;;;;;3.97;1.50;;;14.70;96.70;;;;;;4962927;28;20062;-76
2021/04/28 04:11:46;;;;;;;1.60;1.20;;;14.70;96.70;;;;;;4963064;28;20540;-77
2021/04/28 04:14:21;;;;;;;3.35;1.20;;;14.70;96.70;;;;;;4968427;28;20054;-76
2021/04/28 04:16:52;;;;;;;1.85;1.40;;;14.70;96.70;;;;;;4966542;28;20042;-76
2021/04/28 04:19:20;;;;;;;2.55;1.30;;;14.70;96.70;;;;;;4967149;28;20050;-77
2021/04/28 04:22:08;;;;;;;1.63;1.17;;;14.70;96.70;;;;;;4939150;28;20510;-77
2021/04/28 04:24:46;;;;;;;1.75;1.48;;;14.70;96.70;;;;;;4966355;28;20061;-77
2021/04/28 04:27:15;;;;;;;2.78;1.50;;;14.70;96.70;;;;;;4963445;28;20757;-77
2021/04/28 04:29:47;;;;;;;1.38;1.20;;;14.70;96.70;;;;;;4979146;28;20173;-77
2021/04/28 04:32:30;;;;;;;1.65;1.30;;;14.70;96.70;;;;;;4968933;28;20135;-77
2021/04/28 04:35:24;;;;;;;2.22;1.60;;;14.70;96.70;;;;;;4955965;28;20046;-77
2021/04/28 04:38:12;;;;;;;2.20;1.67;;;14.70;96.70;;;;;;4969457;28;20492;-77
2021/04/28 04:41:00;;;;;;;2.15;1.77;;;14.50;96.70;;;;;;4939904;28;20086;-76
2021/04/28 04:43:48;;;;;;;2.08;1.70;;;14.60;96.70;;;;;;4945964;28;20201;-77
2021/04/28 04:46:24;;;;;;;1.75;1.60;;;14.60;96.70;;;;;;4961703;28;20140;-77
2021/04/28 04:48:52;;;;;;;2.60;1.70;;;14.60;96.70;;;;;;4979962;28;20046;-77
2021/04/28 04:51:19;;;;;;;3.63;2.00;;;14.60;96.70;;;;;;4952400;28;20038;-77
2021/04/28 04:53:47;;;;;;;2.38;1.60;;;14.60;96.70;;;;;;4980490;28;20065;-77
2021/04/28 04:56:15;;;;;;;2.35;1.50;;;14.70;96.70;;;;;;4979824;28;20038;-76
2021/04/28 04:58:42;;;;;;;2.42;1.50;;;14.60;96.70;;;;;;4967051;28;20047;-77
2021/04/28 05:01:10;;;;;;;4.13;2.00;;;14.60;96.70;;;;;;4966483;28;20046;-76
2021/04/28 05:03:38;;;;;;;2.45;1.40;;;14.70;96.70;;;;;;4964702;28;20154;-77
2021/04/28 05:06:06;;;;;;;3.05;2.10;;;14.70;96.70;;;;;;4950470;28;20476;-76
2021/04/28 05:08:34;;;;;;;3.33;1.80;;;14.70;96.70;;;;;;4965708;28;20486;-77
2021/04/28 05:11:02;;;;;;;3.22;1.90;;;14.60;96.70;;;;;;4964737;28;20097;-76
2021/04/28 05:13:29;;;;;;;3.15;2.20;;;14.50;96.70;;;;;;4965564;28;20158;-76
2021/04/28 05:15:57;;;;;;;3.70;2.47;;;14.60;96.70;;;;;;4981510;28;20140;-77
2021/04/28 05:18:24;;;;;;;4.20;2.33;;;14.60;96.70;;;;;;4964458;28;20158;-77
2021/04/28 05:20:53;;;;;;;3.45;2.13;;;14.50;96.70;;;;;;4964944;28;20046;-76
2021/04/28 05:23:21;;;;;;;2.28;1.92;;;14.40;96.70;;;;;;4978078;28;20121;-77
2021/04/28 05:26:24;;;;;;;2.38;1.88;;;14.40;96.70;;;;;;4922686;29;20051;-77
2021/04/28 05:28:52;;;;;;;2.03;1.70;;;14.40;96.70;;;;;;4956389;28;20050;-77
2021/04/28 05:31:19;;;;;;;1.95;1.73;;;14.40;96.70;;;;;;4980969;28;20497;-76
2021/04/28 05:33:48;;;;;;;1.95;1.75;;;14.40;96.70;;;;;;4979538;28;20043;-77
2021/04/28 05:36:16;;;;;;;2.78;1.95;;;14.30;96.70;;;;;;4951296;28;20137;-76
2021/04/28 05:38:44;;;;;;;3.58;2.03;;;14.30;96.70;;;;;;4982918;28;20392;-77
2021/04/28 05:41:12;;;;;;;3.33;1.80;;;14.50;96.70;;;;;;4966280;28;20608;-77
2021/04/28 05:43:40;;;;;;;2.33;1.95;;;14.50;96.70;;;;;;4966128;28;20818;-77
2021/04/28 05:46:10;;;;;;;2.15;1.90;;;14.50;96.70;;;;;;4964459;28;20475;-76
2021/04/28 05:48:37;;;;;;;2.72;2.03;;;14.50;96.70;;;;;;4945130;28;20054;-77
2021/04/28 05:51:05;;;;;;;3.20;2.00;;;14.60;96.70;;;;;;4980068;28;20077;-76
2021/04/28 05:53:34;;;;;;;3.70;2.40;;;14.60;96.70;;;;;;4963143;28;20577;-76
2021/04/28 05:56:04;;;;;;;2.30;2.10;;;14.70;96.70;;;;;;4965582;28;20546;-76
2021/04/28 05:58:32;;;;;;;2.40;2.05;;;14.70;96.70;;;;;;4982978;28;20055;-76
2021/04/28 06:01:00;;;;;;;3.30;2.05;;;14.70;96.70;;;;;;4981141;28;20045;-76
2021/04/28 06:03:27;;;;;;;2.38;1.98;;;14.70;96.70;;;;;;4982584;28;20045;-76
2021/04/28 06:05:55;;;;;;;2.40;2.13;;;14.70;96.70;;;;;;4962729;28;20133;-75
2021/04/28 06:08:23;;;;;;;2.80;2.25;;;14.80;96.70;;;;;;4982470;28;20039;-76
2021/04/28 06:10:51;;;;;;;3.33;2.30;;;14.80;96.70;;;;;;4976685;28;20050;-76
2021/04/28 06:13:19;;;;;;;3.42;2.30;;;14.70;96.70;;;;;;4967226;28;20054;-76
2021/04/28 06:15:47;;;;;;;4.30;2.42;;;14.70;96.70;;;;;;4964296;28;20543;-76
2021/04/28 06:18:14;;;;;;;2.88;2.30;;;14.80;96.70;;;;;;4964711;28;20338;-76
2021/04/28 06:20:42;;;;;;;2.50;2.30;;;14.80;96.70;;;;;;4962967;28;20124;-76
2021/04/28 06:23:10;;;;;;;3.17;2.40;;;14.90;96.70;;;;;;4964602;28;20117;-76
2021/04/28 06:25:40;;;;;;;3.85;2.58;;;14.80;96.70;;;;;;4965253;28;20069;-76
2021/04/28 06:28:09;;;;;;;2.97;2.55;;;14.90;96.70;;;;;;4985519;28;20042;-76
2021/04/28 06:30:36;;;;;;;2.63;2.25;;;14.80;96.70;;;;;;4950615;28;20504;-76
2021/04/28 06:33:04;;;;;;;4.65;2.80;;;14.90;96.70;;;;;;4965514;28;20045;-76
2021/04/28 06:35:34;;;;;;;3.70;2.88;;;14.80;96.70;;;;;;4946700;28;21407;-76
2021/04/28 06:38:02;;;;;;;3.17;2.63;;;14.80;96.70;;;;;;4964612;28;20423;-77
2021/04/28 06:40:30;;;;;;;3.78;2.83;;;14.90;96.70;;;;;;4948561;28;20057;-75
2021/04/28 06:42:57;;;;;;;5.20;2.90;;;14.90;96.70;;;;;;4947234;28;20046;-76
2021/04/28 06:45:26;;;;;;;5.80;2.97;;;14.90;96.70;;;;;;4979362;28;20038;-76
2021/04/28 06:47:54;;;;;;;5.80;3.00;;;14.90;96.70;;;;;;4963217;28;20467;-76
2021/04/28 06:50:22;;;;;;;4.28;2.67;;;14.90;96.70;;;;;;4962482;28;20034;-75
2021/04/28 06:52:49;;;;;;;4.10;2.75;;;14.80;96.70;;;;;;4964557;28;20073;-76
2021/04/28 06:55:17;;;;;;;6.90;3.05;;;14.90;96.70;;;;;;4961370;28;20038;-76
2021/04/28 06:57:56;;;;;;;3.40;2.78;;;14.90;96.70;;;;;;4977476;28;20564;-76
2021/04/28 07:00:28;;;;;;;3.88;3.25;;;15.00;96.70;;;;;;4978246;28;20058;-76
2021/04/28 07:02:59;;;;;;;3.05;2.72;;;15.00;96.70;;;;;;4979240;28;20042;-76
2021/04/28 07:05:27;;;;;;;3.20;2.45;;;15.00;96.70;;;;;;4962833;28;20456;-76
2021/04/28 07:07:55;;;;;;;3.45;2.55;;;14.90;96.70;;;;;;4964135;28;20042;-75
2021/04/28 07:10:23;;;;;;;5.20;2.70;;;14.80;96.70;;;;;;4965291;28;20105;-76
2021/04/28 07:12:52;;;;;;;4.60;2.38;;;14.80;96.70;;;;;;4961614;28;20038;-76
2021/04/28 07:15:20;;;;;;;3.42;2.55;;;14.70;96.70;;;;;;4980376;28;20046;-75
2021/04/28 07:17:49;;;;;;;2.55;2.22;;;14.70;96.70;;;;;;4961666;28;20124;-76
2021/04/28 07:20:17;;;;;;;5.18;2.90;;;14.70;96.70;;;;;;4978593;28;20046;-76
2021/04/28 07:22:45;;;;;;;4.60;2.90;;;14.60;96.70;;;;;;4961886;28;20046;-76
2021/04/28 07:25:13;;;;;;;2.72;2.10;;;14.60;96.70;;;;;;4978979;28;20041;-76
2021/04/28 07:27:43;;;;;;;3.95;2.72;;;14.70;96.70;;;;;;4978296;28;20038;-76
2021/04/28 07:30:12;;;;;;;5.68;3.03;;;14.80;96.70;;;;;;4980989;28;20030;-76
2021/04/28 07:32:40;;;;;;;4.78;2.90;;;14.80;96.70;;;;;;4964856;28;20404;-76
2021/04/28 07:35:13;;;;;;;3.95;2.28;;;14.80;96.70;;;;;;4963648;28;20127;-76
2021/04/28 07:37:41;;;;;;;3.75;2.70;;;14.80;96.70;;;;;;4977589;28;20074;-76
2021/04/28 07:40:10;;;;;;;3.15;2.67;;;14.80;96.70;;;;;;4964401;28;20143;-76
2021/04/28 07:42:38;;;;;;;4.60;2.40;;;14.80;96.70;;;;;;4963515;28;20057;-77
2021/04/28 07:45:07;;;;;;;3.00;2.70;;;14.80;96.70;;;;;;4967703;28;20129;-76
2021/04/28 07:47:34;;;;;;;3.05;2.30;;;14.80;96.70;;;;;;4982570;28;20049;-74
2021/04/28 07:50:16;;;;;;;4.85;2.60;;;14.80;96.70;;;;;;4981949;28;20043;-75
2021/04/28 07:52:47;;;;;;;4.32;2.78;;;14.80;96.70;;;;;;4980921;28;20500;-75
2021/04/28 07:55:15;;;;;;;4.72;2.70;;;14.90;96.70;;;;;;4981834;28;20496;-75
2021/04/28 07:57:43;;;;;;;2.47;2.28;;;14.90;96.70;;;;;;4981587;28;20279;-75
2021/04/28 08:00:13;;;;;;;3.05;2.50;;;14.90;96.70;;;;;;4949779;28;20476;-76
2021/04/28 08:02:41;;;;;;;4.18;2.55;;;15.00;96.70;;;;;;4965598;28;20046;-76
2021/04/28 08:05:10;;;;;;;2.67;2.40;;;15.00;96.70;;;;;;4966013;28;20046;-76
2021/04/28 08:07:39;;;;;;;2.55;2.25;;;15.00;96.70;;;;;;4961950;28;20476;-76
2021/04/28 08:10:08;;;;;;;3.40;2.25;;;15.10;96.70;;;;;;4984494;28;20330;-76
2021/04/28 08:12:37;;;;;;;4.78;2.50;;;15.20;96.70;;;;;;4965878;28;20083;-76
2021/04/28 08:15:06;;;;;;;2.92;2.25;;;15.30;96.70;;;;;;4964616;28;20246;-76
2021/04/28 08:17:34;;;;;;;3.25;2.40;;;15.30;96.70;;;;;;4966909;28;20041;-76
2021/04/28 08:20:02;;;;;;;3.00;2.38;;;15.40;96.70;;;;;;4981618;28;20045;-76
2021/04/28 08:22:30;;;;;;;4.63;2.67;;;15.50;96.70;;;;;;4966468;28;20262;-76
2021/04/28 08:24:59;;;;;;;3.42;2.53;;;15.50;96.70;;;;;;4962745;28;20042;-76
2021/04/28 08:27:27;;;;;;;3.50;2.95;;;15.60;96.70;;;;;;4966255;28;20060;-78
2021/04/28 08:29:56;;;;;;;3.88;2.80;;;15.60;96.70;;;;;;4982895;28;20049;-75
2021/04/28 08:32:24;;;;;;;4.95;2.92;;;15.60;96.70;;;;;;4969799;28;20314;-75
2021/04/28 08:34:53;;;;;;;5.30;3.30;;;15.70;96.70;;;;;;4965811;28;20096;-75
2021/04/28 08:37:20;;;;;;;4.35;2.78;;;15.60;96.70;;;;;;4981425;28;20050;-75
2021/04/28 08:39:48;;;;;;;3.92;2.88;;;15.60;96.70;;;;;;4950385;28;20109;-74
2021/04/28 08:42:18;;;;;;;4.10;2.88;;;15.60;96.70;;;;;;4966008;28;20137;-77
2021/04/28 08:44:47;;;;;;;3.00;2.60;;;15.60;96.70;;;;;;4945972;28;20046;-77
2021/04/28 08:47:15;;;;;;;3.75;2.65;;;15.60;96.70;;;;;;4965865;28;20190;-76
2021/04/28 08:49:42;;;;;;;5.85;3.13;;;15.40;96.70;;;;;;4949041;28;20057;-79
2021/04/28 08:52:13;;;;;;;3.50;2.67;;;15.50;96.70;;;;;;4986284;28;20467;-77
2021/04/28 08:54:49;;;;;;;2.70;2.45;;;15.60;96.70;;;;;;4969208;28;20447;-78
2021/04/28 08:57:19;;;;;;;3.15;2.47;;;15.50;96.70;;;;;;4972669;28;20125;-76
2021/04/28 08:59:49;;;;;;;3.08;2.60;;;15.50;96.70;;;;;;4969362;28;20484;-78
2021/04/28 09:02:22;;;;;;;3.25;2.40;;;15.50;96.70;;;;;;4964446;28;20052;-78
2021/04/28 09:05:05;;;;;;;2.42;2.03;;;15.50;96.70;;;;;;4965538;28;20505;-76
2021/04/28 09:07:33;;;;;;;3.08;2.20;;;15.50;96.70;;;;;;4978112;28;20448;-76
2021/04/28 09:10:07;;;;;;;4.85;2.35;;;15.60;96.70;;;;;;4965976;28;20454;-77
2021/04/28 09:12:36;;;;;;;3.03;1.90;;;15.50;96.70;;;;;;4945954;28;20042;-76
2021/04/28 09:15:06;;;;;;;2.40;1.60;;;15.40;96.70;;;;;;4982751;28;20050;-77
2021/04/28 09:17:49;;;;;;;2.15;1.80;;;15.50;96.70;;;;;;4980442;28;20552;-77
2021/04/28 09:20:38;;;;;;;1.98;1.52;;;15.60;96.70;;;;;;4982617;28;20073;-79
2021/04/28 09:23:28;;;;;;;1.88;1.52;;;15.60;96.70;;;;;;4967679;28;20049;-77
2021/04/28 09:26:16;;;;;;;3.22;2.03;;;15.70;96.70;;;;;;4982559;28;20945;-75
2021/04/28 09:29:08;;;;;;;3.88;1.85;;;15.70;96.70;;;;;;4968014;28;20440;-77
2021/04/28 09:31:37;;;;;;;3.45;2.05;;;15.70;96.70;;;;;;4963888;28;20053;-76
2021/04/28 09:34:05;;;;;;;2.30;1.83;;;15.70;96.70;;;;;;4965048;28;20030;-76
2021/04/28 09:36:33;;;;;;;3.78;2.00;;;15.60;96.70;;;;;;4965277;28;20408;-76
2021/04/28 09:39:05;;;;;;;2.85;2.20;;;15.60;96.70;;;;;;4961451;28;20395;-77
2021/04/28 09:41:39;;;;;;;3.28;2.20;;;15.60;96.70;;;;;;4978421;28;20042;-75
2021/04/28 09:44:30;;;;;;;2.30;2.00;;;15.60;96.70;;;;;;4979077;28;20105;-77
2021/04/28 09:47:11;;;;;;;3.35;2.00;;;15.70;96.70;;;;;;4964128;28;20048;-77
2021/04/28 09:49:48;;;;;;;3.33;1.60;;;15.70;96.70;;;;;;4980561;28;20070;-77
2021/04/28 09:52:18;;;;;;;1.73;1.60;;;15.80;96.70;;;;;;4959923;28;20053;-76
2021/04/28 09:54:49;;;;;;;2.08;1.50;;;15.90;96.70;;;;;;4965090;28;20035;-77
2021/04/28 09:57:19;;;;;;;2.95;1.77;;;15.90;96.70;;;;;;4979008;28;20128;-76
2021/04/28 09:59:50;;;;;;;4.47;1.73;;;16.00;96.70;;;;;;4981391;28;20049;-76
2021/04/28 10:02:26;;;;;;;4.85;2.70;;;16.10;96.70;;;;;;4977747;28;20093;-76
2021/04/28 10:05:16;;;;;;;3.88;2.42;;;16.10;96.70;;;;;;4962883;28;20046;-76
2021/04/28 10:07:52;;;;;;;2.78;2.55;;;16.00;96.70;;;;;;4977951;28;20117;-76
2021/04/28 10:10:22;;;;;;;3.22;2.92;;;15.90;96.70;;;;;;4976351;28;20125;-76
2021/04/28 10:12:50;;;;;;;3.92;2.90;;;15.90;96.70;;;;;;4964637;28;20083;-76
2021/04/28 10:15:19;;;;;;;3.50;3.20;;;15.90;96.70;;;;;;4964265;28;20058;-76
2021/04/28 10:17:48;;;;;;;4.43;2.83;;;15.90;96.70;;;;;;4982250;28;20070;-77
2021/04/28 10:20:17;;;;;;;4.60;2.80;;;15.80;96.70;;;;;;4975371;28;20046;-75
2021/04/28 10:22:47;;;;;;;3.40;2.78;;;15.80;96.70;;;;;;4964965;28;20045;-77
2021/04/28 10:25:17;;;;;;;4.55;2.40;;;15.90;96.70;;;;;;4962606;28;20045;-76
2021/04/28 10:27:47;;;;;;;4.72;2.47;;;15.90;96.70;;;;;;4981378;28;20047;-76
2021/04/28 10:30:17;;;;;;;2.92;2.70;;;15.90;96.70;;;;;;4948910;28;20078;-76
2021/04/28 10:32:46;;;;;;;3.65;2.58;;;15.90;96.70;;;;;;4979414;28;20121;-77
2021/04/28 10:35:16;;;;;;;3.25;2.55;;;16.00;96.70;;;;;;4962950;28;20046;-76
2021/04/28 10:37:49;;;;;;;2.83;2.45;;;16.00;96.70;;;;;;4980560;28;20133;-76
2021/04/28 10:40:19;;;;;;;2.88;2.13;;;16.00;96.70;;;;;;4964733;28;20050;-76
2021/04/28 10:42:48;;;;;;;3.15;2.10;;;16.00;96.70;;;;;;4979869;28;20057;-76
2021/04/28 10:45:37;;;;;;;2.63;2.13;;;16.00;96.70;;;;;;4964500;28;20575;-77
2021/04/28 10:48:39;;;;;;;3.22;2.30;;;16.00;96.70;;;;;;4959631;28;20042;-76
2021/04/28 10:51:08;;;;;;;2.85;1.65;;;16.00;96.70;;;;;;4978828;28;20132;-77
2021/04/28 10:53:36;;;;;;;1.92;1.73;;;16.00;96.70;;;;;;4979255;28;20046;-76
2021/04/28 10:56:15;;;;;;;2.70;1.50;;;16.00;96.70;;;;;;4964922;28;20052;-76
2021/04/28 10:58:47;;;;;;;1.77;1.60;;;16.10;96.70;;;;;;4964524;28;20050;-76
2021/04/28 11:01:27;;;;;;;3.25;1.65;;;16.10;96.70;;;;;;4965862;28;20056;-76
2021/04/28 11:03:57;;;;;;;2.28;1.85;;;16.20;96.70;;;;;;4977590;28;20042;-77
2021/04/28 11:06:49;;;;;;;2.08;1.75;;;16.30;96.70;;;;;;4948357;28;20039;-75
2021/04/28 11:09:19;;;;;;;2.40;1.38;;;16.30;96.70;;;;;;4957702;28;20050;-77
2021/04/28 11:12:05;;;;;;;2.20;1.73;;;16.30;96.70;;;;;;4980934;28;20027;-76
2021/04/28 11:14:45;;;;;;;1.40;1.30;;;16.40;96.70;;;;;;4972967;28;20413;-77
2021/04/28 11:17:27;;;;;;;1.70;1.48;;;16.50;96.70;;;;;;4961729;28;20057;-77
2021/04/28 11:20:12;;;;;;;3.85;1.63;;;16.60;96.70;;;;;;4966218;28;20397;-76
2021/04/28 11:22:40;;;;;;;3.45;1.58;;;16.60;96.70;;;;;;4980273;28;20121;-76
2021/04/28 11:25:18;;;;;;;1.67;1.33;;;16.70;96.70;;;;;;4983265;28;20045;-76
2021/04/28 11:28:08;;;;;;;2.40;1.40;;;16.80;96.70;;;;;;4968566;28;20057;-77
2021/04/28 11:30:45;;;;;;;2.67;1.25;;;16.80;96.70;;;;;;4982123;28;20068;-77
2021/04/28 11:33:21;;;;;;;;;;;16.70;96.70;;;;;;4968360;28;20572;-76
2021/04/28 11:36:09;;;;;;;2.17;1.23;;;16.70;96.70;;;;;;4968844;28;20197;-77
2021/04/28 11:38:40;;;;;;;2.95;1.58;;;16.70;96.70;;;;;;4981080;28;20047;-76
2021/04/28 11:41:11;;;;;;;2.40;1.40;;;16.80;96.70;;;;;;4962956;28;20077;-76
2021/04/28 11:43:43;;;;;;;2.15;1.40;;;16.80;96.70;;;;;;4982466;28;20134;-76
2021/04/28 11:46:13;;;;;;;2.75;1.33;;;16.80;96.70;;;;;;4982669;28;20152;-76
2021/04/28 11:48:43;;;;;;;2.45;1.60;;;16.90;96.70;;;;;;4961149;28;20099;-76
2021/04/28 11:51:14;;;;;;;3.05;1.63;;;17.00;96.70;;;;;;4981902;28;20046;-77
2021/04/28 11:53:46;;;;;;;4.50;1.70;;;17.00;96.70;;;;;;4950878;28;20062;-76
2021/04/28 11:56:31;;;;;;;1.83;1.50;;;17.00;96.70;;;;;;4978131;28;20053;-76
2021/04/28 11:59:00;;;;;;;2.35;1.50;;;17.00;96.70;;;;;;4981767;28;20133;-76
2021/04/28 12:01:31;;;;;;;1.58;1.30;;;17.00;96.70;;;;;;4963234;28;20046;-76
2021/04/28 12:04:01;;;;;;;9.65;2.00;;;16.90;96.70;;;;;;4951761;28;20139;-76
2021/04/28 12:06:38;;;;;;;2.08;1.38;;;16.90;96.70;;;;;;4983013;28;20382;-76
2021/04/28 12:09:11;;;;;;;1.50;1.05;;;16.90;96.70;;;;;;4981400;28;20042;-76
2021/04/28 12:11:41;;;;;;;2.65;1.50;;;17.00;96.70;;;;;;4967689;28;20121;-76
2021/04/28 12:14:09;;;;;;;1.98;1.38;;;17.20;96.70;;;;;;4965957;28;20038;-76
2021/04/28 12:16:52;;;;;;;1.25;1.00;;;17.30;96.70;;;;;;4968423;28;20128;-76
2021/04/28 12:19:21;;;;;;;3.30;1.45;;;17.40;96.70;;;;;;4965961;28;21020;-76
2021/04/28 12:21:55;;;;;;;2.17;1.20;;;17.50;96.70;;;;;;4983008;28;20038;-76
2021/04/28 12:24:29;;;;;;;1.13;1.00;;;17.70;96.70;;;;;;4983936;28;20056;-76
2021/04/28 12:27:24;;;;;;;3.00;1.00;;;17.90;96.70;;;;;;4966074;28;20030;-76
2021/04/28 12:29:54;;;;;;;1.88;1.35;;;17.80;96.70;;;;;;4941114;28;20078;-76
2021/04/28 12:32:25;;;;;;;1.55;1.40;;;17.80;96.70;;;;;;4978477;28;20049;-76
2021/04/28 12:35:09;;;;;;;2.30;1.55;;;17.60;96.70;;;;;;4980231;28;20475;-76
2021/04/28 12:37:38;;;;;;;2.22;0.98;;;17.60;96.70;;;;;;4963941;28;20433;-76
2021/04/28 12:40:12;;;;;;;3.08;1.50;;;17.60;96.70;;;;;;4984520;28;20054;-76
2021/04/28 12:42:43;;;;;;;2.22;1.17;;;17.70;96.70;;;;;;4967046;28;20046;-76
2021/04/28 12:45:13;;;;;;;1.90;1.20;;;17.90;96.70;;;;;;4966051;28;20270;-76
2021/04/28 12:47:42;;;;;;;2.15;1.27;;;18.10;96.70;;;;;;4982725;28;20045;-76
2021/04/28 12:50:14;;;;;;;1.45;1.10;;;18.10;96.70;;;;;;4965244;28;20516;-77
2021/04/28 12:52:43;;;;;;;1.92;1.30;;;18.20;96.70;;;;;;4982738;28;20051;-76
2021/04/28 12:55:30;;;;;;;1.73;1.30;;;18.10;96.70;;;;;;4965713;28;20109;-76
2021/04/28 12:58:00;;;;;;;1.40;1.30;;;18.00;96.70;;;;;;4964528;28;20137;-76
2021/04/28 13:00:31;;;;;;;1.85;1.48;;;18.10;96.70;;;;;;4956404;28;20493;-76
2021/04/28 13:03:10;;;;;;;2.08;1.42;;;18.20;96.70;;;;;;4967379;28;20148;-76
2021/04/28 13:05:40;;;;;;;3.03;1.35;;;18.20;96.70;;;;;;4978719;28;20132;-76
2021/04/28 13:08:30;;;;;;;1.65;1.27;;;18.10;96.70;;;;;;4967258;28;20050;-76
2021/04/28 13:11:16;;;;;;;1.73;1.60;;;18.00;96.70;;;;;;4978036;28;20046;-76
2021/04/28 13:13:52;;;;;;;1.35;1.20;;;18.00;96.70;;;;;;4978415;28;20212;-76